This is the latest recevied weather packets stored in our database for station/object SP8C-13. If no packets are shown the sender has not sent any weather packets the latest 10 day(s).
| Time | Temp. | Humidity | Pressure | Rain* | Wind** | Luminosity | Snow |
|---|---|---|---|---|---|---|---|
| 1777796012 | 22.78° C | 38% | 1020.7 hPa | - | - | - | - |
| 1777794212 | 21.67° C | 39% | 1020.9 hPa | - | - | - | - |
| 1777792419 | 21.11° C | 41% | 1021 hPa | - | - | - | - |
| 1777788819 | 18.33° C | 44% | 1021 hPa | - | - | - | - |
| 1777787019 | 16.67° C | 48% | 1021 hPa | - | - | - | - |
| 1777785219 | 14.44° C | 59% | 1021 hPa | - | - | - | - |
| 1777783418 | 12.22° C | 58% | 1021 hPa | - | - | - | - |
| 1777781618 | 10° C | 61% | 1021 hPa | - | - | - | - |
| 1777779818 | 6.67° C | 68% | 1020.8 hPa | - | - | - | - |
| 1777778018 | 3.89° C | 78% | 1020.7 hPa | - | - | - | - |
| 1777776218 | 3.33° C | 77% | 1020.7 hPa | - | - | - | - |
| 1777774418 | 3.33° C | 81% | 1020.8 hPa | - | - | - | - |
| 1777767217 | 5° C | 73% | 1020.8 hPa | - | - | - | - |
| 1777765417 | 5.56° C | 74% | 1021 hPa | - | - | - | - |
| 1777763617 | 6.67° C | 69% | 1020.8 hPa | - | - | - | - |
| 1777761817 | 6.67° C | 70% | 1020.9 hPa | - | - | - | - |
| 1777756416 | 10.56° C | 59% | 1021.1 hPa | - | - | - | - |
| 1777734814 | 22.22° C | 41% | 1021.8 hPa | - | - | - | - |
| 1777722213 | 21.67° C | 38% | 1024.5 hPa | - | - | - | - |
| 1777720412 | 20.56° C | 40% | 1024.7 hPa | - | - | - | - |
| 1777718612 | 21.67° C | 39% | 1025 hPa | - | - | - | - |
| 1777716812 | 18.89° C | 41% | 1025.3 hPa | - | - | - | - |
| 1777715012 | 19.44° C | 40% | 1025.6 hPa | - | - | - | - |
| 1777713212 | 19.44° C | 40% | 1025.8 hPa | - | - | - | - |
| 1777711412 | 19.44° C | 42% | 1026 hPa | - | - | - | - |
* Rain since midnight (hover to see other rain measurements)
** Current wind speed in m/s (hover to see current wind gust speed)